createdAt,value
2019-05-05T00:01:14.670Z,12.93
2019-05-05T00:03:44.550Z,13.20
2019-05-05T00:06:11.182Z,7.27
2019-05-05T00:08:37.389Z,12.43
2019-05-05T00:11:05.578Z,14.57
2019-05-05T00:13:34.655Z,11.50
2019-05-05T00:16:04.651Z,15.17
2019-05-05T00:18:31.625Z,10.33
2019-05-05T00:20:57.797Z,19.73
2019-05-05T00:23:25.112Z,18.93
2019-05-05T00:25:51.833Z,12.03
2019-05-05T00:28:17.994Z,14.07
2019-05-05T00:30:44.872Z,11.97
2019-05-05T00:33:11.171Z,13.70
2019-05-05T00:35:37.456Z,18.10
2019-05-05T00:38:05.094Z,18.10
2019-05-05T00:40:31.441Z,13.17
2019-05-05T00:42:57.618Z,15.57
2019-05-05T00:45:25.230Z,28.47
2019-05-05T00:47:54.475Z,21.43
2019-05-05T00:50:22.002Z,25.70
2019-05-05T00:52:48.410Z,28.93
2019-05-05T00:55:15.143Z,22.97
2019-05-05T00:57:42.858Z,18.37
2019-05-05T01:00:15.222Z,24.80
2019-05-05T01:02:44.926Z,19.40
2019-05-05T01:05:14.907Z,19.87
2019-05-05T01:07:41.322Z,21.47
2019-05-05T01:10:07.700Z,9.53
2019-05-05T01:12:34.857Z,17.33
2019-05-05T01:15:01.592Z,9.60
2019-05-05T01:17:27.764Z,16.40
2019-05-05T01:20:03.365Z,15.47
2019-05-05T01:22:22.041Z,30.77
2019-05-05T01:24:48.314Z,29.57
2019-05-05T01:27:14.786Z,21.47
2019-05-05T01:29:41.086Z,30.60
2019-05-05T01:32:09.161Z,17.27
2019-05-05T01:34:37.348Z,15.03
2019-05-05T01:37:05.463Z,31.30
2019-05-05T01:39:34.599Z,21.90
2019-05-05T01:42:04.773Z,20.80
2019-05-05T01:44:30.879Z,21.37
2019-05-05T01:46:57.146Z,20.67
2019-05-05T01:49:25.111Z,21.10
2019-05-05T01:51:51.334Z,22.83
2019-05-05T01:54:17.502Z,27.53
2019-05-05T01:56:44.549Z,24.70
2019-05-05T01:59:11.494Z,34.43
2019-05-05T02:01:37.731Z,32.90
2019-05-05T02:04:05.523Z,29.60
2019-05-05T02:06:32.247Z,26.87
2019-05-05T02:08:58.414Z,27.53
2019-05-05T02:11:24.841Z,25.53
2019-05-05T02:13:51.093Z,29.67
2019-05-05T02:16:17.270Z,25.50
2019-05-05T02:18:45.055Z,29.43
2019-05-05T02:21:11.450Z,30.10
2019-05-05T02:23:37.633Z,22.20
2019-05-05T02:26:05.209Z,26.23
2019-05-05T02:28:34.726Z,22.50
2019-05-05T02:31:01.211Z,28.30
2019-05-05T02:33:27.489Z,27.67
2019-05-05T02:35:55.637Z,29.30
2019-05-05T02:38:22.003Z,35.07
2019-05-05T02:40:48.281Z,27.43
2019-05-05T02:43:15.943Z,24.53
2019-05-05T02:45:47.843Z,28.20
2019-05-05T02:48:15.623Z,32.77
2019-05-05T02:50:54.892Z,31.03
2019-05-05T02:53:11.917Z,26.03
2019-05-05T02:55:38.098Z,30.67
2019-05-05T02:58:04.306Z,26.13
2019-05-05T03:00:30.670Z,36.70
2019-05-05T03:02:58.771Z,20.03
2019-05-05T03:05:25.470Z,39.60
2019-05-05T03:07:51.668Z,26.53
2019-05-05T03:10:17.843Z,25.63
2019-05-05T03:12:44.040Z,35.57
2019-05-05T03:15:14.340Z,23.70
2019-05-05T03:17:40.617Z,28.00
2019-05-05T03:20:07.034Z,30.63
2019-05-05T03:22:34.085Z,30.80
2019-05-05T03:25:00.394Z,21.97
2019-05-05T03:27:26.688Z,24.37
2019-05-05T03:29:53.627Z,36.10
2019-05-05T03:32:20.039Z,24.50
2019-05-05T03:34:46.531Z,19.73
2019-05-05T03:37:14.584Z,22.17
2019-05-05T03:39:44.421Z,20.10
2019-05-05T03:42:13.938Z,27.63
2019-05-05T03:44:44.042Z,26.70
2019-05-05T03:47:10.359Z,18.23
2019-05-05T03:49:36.718Z,22.00
2019-05-05T03:52:04.691Z,19.23
2019-05-05T03:54:30.971Z,25.37
2019-05-05T03:56:59.084Z,25.60
2019-05-05T03:59:25.438Z,19.07
2019-05-05T04:01:54.525Z,19.20
2019-05-05T04:04:21.049Z,21.33
2019-05-05T04:06:49.130Z,23.73
2019-05-05T04:09:15.402Z,27.43
2019-05-05T04:11:41.611Z,21.77
2019-05-05T04:14:08.181Z,25.53
2019-05-05T04:16:36.262Z,30.27
2019-05-05T04:19:04.400Z,31.93
2019-05-05T04:21:33.928Z,20.80
2019-05-05T04:23:58.549Z,24.30
2019-05-05T04:26:24.991Z,22.57
2019-05-05T04:28:51.161Z,18.23
2019-05-05T04:31:17.338Z,30.77
2019-05-05T04:33:44.485Z,16.47
2019-05-05T04:36:10.814Z,27.70
2019-05-05T04:38:37.089Z,33.00
2019-05-05T04:41:03.587Z,25.83
2019-05-05T04:43:29.971Z,30.67
2019-05-05T04:45:56.150Z,31.00
2019-05-05T04:48:24.347Z,32.63
2019-05-05T04:50:54.318Z,35.53
2019-05-05T04:53:24.144Z,27.97
2019-05-05T04:55:50.502Z,27.47
2019-05-05T04:58:16.679Z,26.57
2019-05-05T05:00:44.121Z,24.00
2019-05-05T05:03:14.541Z,25.13
2019-05-05T05:05:44.186Z,24.77
2019-05-05T05:08:10.608Z,16.37
2019-05-05T05:10:36.813Z,22.60
2019-05-05T05:13:04.660Z,23.30
2019-05-05T05:15:30.987Z,16.47
2019-05-05T05:17:59.222Z,26.60
2019-05-05T05:20:25.402Z,27.80
2019-05-05T05:22:51.784Z,20.33
2019-05-05T05:25:18.082Z,23.50
2019-05-05T05:27:44.451Z,29.27
2019-05-05T05:30:10.934Z,33.27
2019-05-05T05:32:39.758Z,25.97
2019-05-05T05:35:05.386Z,27.33
2019-05-05T05:37:31.561Z,25.17
2019-05-05T05:39:59.668Z,22.67
2019-05-05T05:42:25.842Z,29.83
2019-05-05T05:44:53.968Z,22.93
2019-05-05T05:47:24.356Z,31.40
2019-05-05T05:49:54.339Z,22.90
2019-05-05T05:52:20.089Z,29.20
2019-05-05T05:54:46.302Z,24.97
2019-05-05T05:57:13.620Z,24.03
2019-05-05T05:59:40.057Z,26.90
2019-05-05T06:02:12.230Z,17.27
2019-05-05T06:04:34.869Z,18.07
2019-05-05T06:07:01.055Z,11.83
2019-05-05T06:09:27.249Z,22.57
2019-05-05T06:11:54.220Z,17.23
2019-05-05T06:14:20.606Z,11.77
2019-05-05T06:16:46.800Z,17.13
2019-05-05T06:19:14.096Z,23.30
2019-05-05T06:21:40.350Z,36.70
2019-05-05T06:24:06.546Z,22.27
2019-05-05T06:26:34.355Z,26.60
2019-05-05T06:29:00.817Z,23.93
2019-05-05T06:31:27.034Z,21.90
2019-05-05T06:33:54.342Z,11.97
2019-05-05T06:36:20.582Z,17.20
2019-05-05T06:38:47.074Z,13.27
2019-05-05T06:41:15.158Z,16.13
2019-05-05T06:43:44.124Z,12.70
2019-05-05T06:46:14.507Z,17.93
2019-05-05T06:48:40.323Z,17.27
2019-05-05T06:51:06.503Z,14.60
2019-05-05T06:53:34.205Z,19.97
2019-05-05T06:56:00.522Z,26.80
2019-05-05T06:58:26.690Z,21.73
2019-05-05T07:00:54.269Z,22.20
2019-05-05T07:03:20.549Z,22.53
2019-05-05T07:05:47.186Z,15.93
2019-05-05T07:08:13.777Z,19.10
2019-05-05T07:10:40.361Z,21.93
2019-05-05T07:13:06.530Z,25.33
2019-05-05T07:15:34.264Z,22.83
2019-05-05T07:18:00.909Z,21.20
2019-05-05T07:20:27.082Z,16.67
2019-05-05T07:22:59.774Z,11.53
2019-05-05T07:25:24.251Z,14.27
2019-05-05T07:27:49.332Z,20.30
2019-05-05T07:30:15.638Z,14.43
2019-05-05T07:32:41.908Z,11.03
2019-05-05T07:35:10.090Z,15.17
2019-05-05T07:37:36.379Z,14.90
2019-05-05T07:40:05.387Z,11.73
2019-05-05T07:42:33.431Z,20.87
2019-05-05T07:44:59.833Z,15.90
2019-05-05T07:47:26.105Z,22.10
2019-05-05T07:49:53.533Z,19.67
2019-05-05T07:52:20.019Z,12.07
2019-05-05T07:54:46.190Z,20.73
2019-05-05T07:57:14.497Z,17.17
2019-05-05T07:59:40.379Z,15.07
2019-05-05T08:02:06.551Z,17.97
2019-05-05T08:04:34.567Z,10.27
2019-05-05T08:07:03.971Z,13.03
2019-05-05T08:09:30.147Z,14.87
2019-05-05T08:11:56.319Z,23.13
2019-05-05T08:14:24.354Z,17.10
2019-05-05T08:16:53.610Z,17.90
2019-05-05T08:19:21.782Z,15.27
2019-05-05T08:21:48.202Z,16.07
2019-05-05T08:24:16.278Z,21.37
2019-05-05T08:26:44.071Z,17.53
2019-05-05T08:29:13.640Z,15.00
2019-05-05T08:31:44.198Z,14.57
2019-05-05T08:34:10.038Z,12.50
2019-05-05T08:36:39.326Z,19.97
2019-05-05T08:39:05.518Z,14.97
2019-05-05T08:41:33.727Z,15.43
2019-05-05T08:43:59.875Z,25.93
2019-05-05T08:46:26.047Z,21.23
2019-05-05T08:48:53.718Z,23.13
2019-05-05T08:51:20.119Z,17.93
2019-05-05T08:53:48.381Z,13.53
2019-05-05T08:56:14.726Z,23.80
2019-05-05T08:58:43.637Z,19.03
2019-05-05T09:01:09.374Z,19.03
2019-05-05T09:03:35.546Z,11.90
2019-05-05T09:06:01.754Z,7.53
2019-05-05T09:08:28.337Z,21.40
2019-05-05T09:10:55.255Z,20.27
2019-05-05T09:13:24.522Z,16.67
2019-05-05T09:15:50.522Z,16.77
2019-05-05T09:18:16.890Z,17.17
2019-05-05T09:20:44.527Z,15.50
2019-05-05T09:23:11.122Z,13.07
2019-05-05T09:25:39.199Z,17.67
2019-05-05T09:28:07.307Z,11.77
2019-05-05T09:30:36.078Z,19.23
2019-05-05T09:33:03.568Z,18.17
2019-05-05T09:35:29.950Z,11.23
2019-05-05T09:37:56.327Z,10.37
2019-05-05T09:40:26.314Z,15.63
2019-05-05T09:42:53.578Z,15.37
2019-05-05T09:45:19.790Z,15.27
2019-05-05T09:47:46.073Z,11.77
2019-05-05T09:50:14.163Z,14.87
2019-05-05T09:52:40.467Z,13.63
2019-05-05T09:55:06.734Z,11.73
2019-05-05T09:57:34.403Z,10.20
2019-05-05T10:00:06.442Z,12.20
2019-05-05T10:02:34.412Z,10.67
2019-05-05T10:05:00.628Z,8.57
2019-05-05T10:07:26.898Z,12.87
2019-05-05T10:09:54.218Z,12.97
2019-05-05T10:12:20.867Z,17.50
2019-05-05T10:14:47.112Z,16.87
2019-05-05T10:17:14.107Z,14.77
2019-05-05T10:19:40.664Z,9.13
2019-05-05T10:22:06.833Z,16.37
2019-05-05T10:24:35.051Z,14.80
2019-05-05T10:27:01.255Z,15.77
2019-05-05T10:29:27.508Z,12.47
2019-05-05T10:31:53.965Z,18.13
2019-05-05T10:34:20.430Z,19.33
2019-05-05T10:36:46.811Z,22.27
2019-05-05T10:39:14.878Z,14.27
2019-05-05T10:41:41.421Z,20.27
2019-05-05T10:44:07.640Z,22.77
2019-05-05T10:46:34.154Z,19.27
2019-05-05T10:49:00.499Z,17.53
2019-05-05T10:51:26.687Z,16.20
2019-05-05T10:53:54.493Z,13.57
2019-05-05T10:56:20.955Z,13.23
2019-05-05T10:58:47.322Z,13.57
2019-05-05T11:01:14.518Z,23.13
2019-05-05T11:03:40.819Z,15.63
2019-05-05T11:06:06.994Z,14.90
2019-05-05T11:08:34.755Z,15.83
2019-05-05T11:11:01.622Z,20.13
2019-05-05T11:13:28.009Z,14.00
2019-05-05T11:15:54.644Z,14.50
2019-05-05T11:18:21.070Z,12.50
2019-05-05T11:20:47.246Z,16.17
2019-05-05T11:23:14.900Z,10.50
2019-05-05T11:25:44.023Z,18.97
2019-05-05T11:28:10.129Z,16.23
2019-05-05T11:30:38.607Z,16.23
2019-05-05T11:33:06.930Z,15.87
2019-05-05T11:35:35.219Z,5.83
2019-05-05T11:38:03.147Z,19.50
2019-05-05T11:40:31.582Z,18.00
2019-05-05T11:42:57.954Z,19.93
2019-05-05T11:45:24.132Z,16.17
2019-05-05T11:47:50.457Z,17.90
2019-05-05T11:50:16.633Z,22.13
2019-05-05T11:52:44.411Z,18.37
2019-05-05T11:55:12.228Z,13.60
2019-05-05T11:57:38.858Z,13.90
2019-05-05T12:00:06.132Z,8.97
2019-05-05T12:02:33.502Z,10.30
2019-05-05T12:04:59.842Z,12.37
2019-05-05T12:07:26.003Z,14.47
2019-05-05T12:09:54.889Z,8.67
2019-05-05T12:12:22.167Z,13.47
2019-05-05T12:14:49.245Z,7.43
2019-05-05T12:17:17.434Z,8.07
2019-05-05T12:19:43.610Z,7.90
2019-05-05T12:22:09.779Z,11.20
2019-05-05T12:24:37.966Z,11.20
2019-05-05T12:27:06.060Z,8.53
2019-05-05T12:29:33.818Z,10.53
2019-05-05T12:32:00.282Z,6.33
2019-05-05T12:34:26.462Z,7.93
2019-05-05T12:36:54.001Z,9.80
2019-05-05T12:39:20.391Z,9.30
2019-05-05T12:41:46.720Z,13.97
2019-05-05T12:44:14.795Z,15.07
2019-05-05T12:46:44.214Z,11.60
2019-05-05T12:49:13.876Z,9.27
2019-05-05T12:51:40.228Z,6.87
2019-05-05T12:54:06.431Z,17.13
2019-05-05T12:56:34.056Z,11.47
2019-05-05T12:59:03.711Z,11.30
2019-05-05T13:01:33.576Z,13.77
2019-05-05T13:03:59.764Z,12.73
2019-05-05T13:06:25.934Z,12.40
2019-05-05T13:08:52.347Z,6.80
2019-05-05T13:11:18.927Z,8.77
2019-05-05T13:13:46.454Z,12.17
2019-05-05T13:16:13.629Z,7.10
2019-05-05T13:18:40.126Z,10.60
2019-05-05T13:21:08.198Z,11.30
2019-05-05T13:23:36.374Z,15.30
2019-05-05T13:26:04.649Z,14.00
2019-05-05T13:28:31.016Z,10.17
2019-05-05T13:30:57.207Z,12.37
2019-05-05T13:33:24.655Z,10.20
2019-05-05T13:35:51.279Z,8.03
2019-05-05T13:38:17.626Z,11.90
2019-05-05T13:40:43.964Z,7.73
2019-05-05T13:43:10.275Z,10.93
2019-05-05T13:45:38.562Z,11.67
2019-05-05T13:48:04.735Z,10.57
2019-05-05T13:50:34.089Z,11.73
2019-05-05T13:53:00.620Z,14.37
2019-05-05T13:55:26.802Z,16.23
2019-05-05T13:57:54.768Z,10.70
2019-05-05T14:00:21.078Z,10.57
2019-05-05T14:02:47.251Z,20.07
2019-05-05T14:05:13.607Z,12.17
2019-05-05T14:07:39.826Z,10.47
2019-05-05T14:10:06.002Z,4.20
2019-05-05T14:12:34.393Z,6.63
2019-05-05T14:15:01.426Z,6.70
2019-05-05T14:17:27.607Z,6.47
2019-05-05T14:20:02.470Z,20.43
2019-05-05T14:22:24.096Z,14.30
2019-05-05T14:24:53.667Z,22.33
2019-05-05T14:27:19.976Z,17.77
2019-05-05T14:29:48.182Z,17.07
2019-05-05T14:32:16.251Z,14.43
2019-05-05T14:34:44.341Z,12.50
2019-05-05T14:37:14.171Z,18.27
2019-05-05T14:39:40.863Z,16.67
2019-05-05T14:42:07.033Z,16.30
2019-05-05T14:44:34.303Z,15.67
2019-05-05T14:47:00.706Z,15.90
2019-05-05T14:49:26.879Z,12.70
2019-05-05T14:51:53.842Z,14.37
2019-05-05T14:54:20.373Z,12.77
2019-05-05T14:56:46.543Z,10.70
2019-05-05T14:59:14.194Z,12.83
2019-05-05T15:01:40.922Z,14.33
2019-05-05T15:04:09.002Z,12.03
2019-05-05T15:06:38.414Z,13.10
2019-05-05T15:09:07.132Z,10.83
2019-05-05T15:11:33.861Z,15.67
2019-05-05T15:14:00.259Z,9.60
2019-05-05T15:16:27.512Z,7.40
2019-05-05T15:18:53.694Z,15.27
2019-05-05T15:21:19.877Z,13.93
2019-05-05T15:23:46.053Z,9.23
2019-05-05T15:26:12.645Z,13.17
2019-05-05T15:28:39.018Z,6.27
2019-05-05T15:31:05.189Z,8.83
2019-05-05T15:33:33.496Z,6.53
2019-05-05T15:35:59.571Z,4.87
2019-05-05T15:38:25.744Z,16.10
2019-05-05T15:40:51.915Z,9.63
2019-05-05T15:43:18.106Z,6.10
2019-05-05T15:45:44.593Z,14.70
2019-05-05T15:48:10.770Z,12.10
2019-05-05T15:50:36.977Z,9.67
2019-05-05T15:53:03.807Z,6.67
2019-05-05T15:55:30.130Z,8.17
2019-05-05T15:57:56.479Z,8.43
2019-05-05T16:00:23.006Z,9.57
2019-05-05T16:02:49.287Z,7.70
2019-05-05T16:05:15.599Z,7.53
2019-05-05T16:07:43.810Z,6.97
2019-05-05T16:10:11.159Z,11.53
2019-05-05T16:12:39.736Z,7.73
2019-05-05T16:15:08.547Z,12.60
2019-05-05T16:17:37.400Z,6.43
2019-05-05T16:20:06.618Z,12.97
2019-05-05T16:22:34.780Z,8.20
2019-05-05T16:25:04.275Z,8.27
2019-05-05T16:27:30.738Z,11.97
2019-05-05T16:29:56.917Z,11.63
2019-05-05T16:32:24.878Z,9.63
2019-05-05T16:34:51.102Z,9.17
2019-05-05T16:37:17.275Z,11.40
2019-05-05T16:39:43.972Z,8.40
2019-05-05T16:42:10.354Z,13.80
2019-05-05T16:44:36.531Z,10.03
2019-05-05T16:47:04.541Z,8.57
2019-05-05T16:49:35.342Z,11.50
2019-05-05T16:52:04.035Z,10.60
2019-05-05T16:54:33.654Z,13.00
2019-05-05T16:57:00.206Z,10.13
2019-05-05T16:59:26.375Z,12.50
2019-05-05T17:01:54.077Z,18.87
2019-05-05T17:04:20.639Z,14.70
2019-05-05T17:06:46.910Z,11.53
2019-05-05T17:09:14.936Z,12.67
2019-05-05T17:11:43.966Z,12.67
2019-05-05T17:14:12.110Z,9.70
2019-05-05T17:16:40.287Z,8.33
2019-05-05T17:19:08.618Z,10.77
2019-05-05T17:21:36.696Z,5.40
2019-05-05T17:24:02.962Z,7.30
2019-05-05T17:26:29.565Z,7.73
2019-05-05T17:28:55.738Z,8.10
2019-05-05T17:31:24.241Z,8.90
2019-05-05T17:33:50.230Z,10.87
2019-05-05T17:36:16.406Z,10.97
2019-05-05T17:38:43.724Z,8.23
2019-05-05T17:41:13.791Z,4.40
2019-05-05T17:43:41.986Z,5.93
2019-05-05T17:46:10.063Z,8.30
2019-05-05T17:48:38.202Z,12.77
2019-05-05T17:51:06.286Z,9.93
2019-05-05T17:53:34.305Z,8.43
2019-05-05T17:56:03.942Z,8.93
2019-05-05T17:58:30.257Z,4.63
2019-05-05T18:00:58.334Z,9.10
2019-05-05T18:03:24.710Z,11.13
2019-05-05T18:05:54.502Z,11.67
2019-05-05T18:08:24.017Z,11.13
2019-05-05T18:10:50.469Z,16.30
2019-05-05T18:13:18.564Z,13.07
2019-05-05T18:15:48.278Z,18.90
2019-05-05T18:18:14.646Z,9.07
2019-05-05T18:20:41.330Z,8.77
2019-05-05T18:23:07.523Z,10.97
2019-05-05T18:25:34.668Z,7.70
2019-05-05T18:28:13.774Z,8.13
2019-05-05T18:30:29.089Z,9.07
2019-05-05T18:32:55.290Z,10.43
2019-05-05T18:35:21.474Z,10.50
2019-05-05T18:37:47.647Z,7.90
2019-05-05T18:40:14.546Z,12.47
2019-05-05T18:42:40.886Z,10.47
2019-05-05T18:45:09.066Z,9.77
2019-05-05T18:47:35.269Z,9.30
2019-05-05T18:50:04.170Z,7.37
2019-05-05T18:52:30.421Z,13.13
2019-05-05T18:54:56.821Z,13.27
2019-05-05T18:57:24.706Z,13.23
2019-05-05T18:59:50.983Z,9.20
2019-05-05T19:02:19.083Z,11.50
2019-05-05T19:04:48.605Z,12.77
2019-05-05T19:07:16.861Z,9.17
2019-05-05T19:09:51.860Z,9.30
2019-05-05T19:12:11.224Z,12.87
2019-05-05T19:14:37.393Z,10.63
2019-05-05T19:17:04.601Z,15.73
2019-05-05T19:19:31.074Z,10.43
2019-05-05T19:21:59.946Z,10.93
2019-05-05T19:24:26.477Z,15.57
2019-05-05T19:26:54.181Z,11.67
2019-05-05T19:29:20.637Z,8.67
2019-05-05T19:31:47.870Z,8.27
2019-05-05T19:34:14.550Z,6.90
2019-05-05T19:36:40.850Z,13.23
2019-05-05T19:39:07.043Z,12.80
2019-05-05T19:41:34.767Z,7.73
2019-05-05T19:44:02.514Z,11.63
2019-05-05T19:46:31.545Z,10.90
2019-05-05T19:48:59.617Z,13.00
2019-05-05T19:51:26.082Z,7.23
2019-05-05T19:53:54.080Z,11.93
2019-05-05T19:56:20.379Z,9.30
2019-05-05T19:58:58.138Z,13.00
2019-05-05T20:01:14.628Z,9.13
2019-05-05T20:03:40.913Z,9.40
2019-05-05T20:06:07.408Z,9.40
2019-05-05T20:08:40.761Z,4.57
2019-05-05T20:11:01.786Z,10.60
2019-05-05T20:13:27.975Z,7.83
2019-05-05T20:15:56.095Z,8.73
2019-05-05T20:18:22.376Z,7.70
2019-05-05T20:21:00.938Z,8.07
2019-05-05T20:23:17.962Z,7.90
2019-05-05T20:25:44.806Z,13.83
2019-05-05T20:28:11.070Z,8.07
2019-05-05T20:30:37.380Z,6.73
2019-05-05T20:33:05.456Z,9.80
2019-05-05T20:35:34.933Z,12.63
2019-05-05T20:38:04.785Z,11.80
2019-05-05T20:40:34.854Z,11.73
2019-05-05T20:43:00.938Z,7.20
2019-05-05T20:45:29.087Z,12.63
2019-05-05T20:47:55.258Z,8.70
2019-05-05T20:50:21.439Z,9.23
2019-05-05T20:52:47.638Z,13.27
2019-05-05T20:55:14.164Z,9.70
2019-05-05T20:57:40.697Z,12.07
2019-05-05T21:00:08.995Z,6.40
2019-05-05T21:02:35.162Z,9.43
2019-05-05T21:05:03.857Z,5.07
2019-05-05T21:07:29.626Z,9.47
2019-05-05T21:09:55.802Z,4.73
2019-05-05T21:12:21.976Z,9.63
2019-05-05T21:14:48.178Z,9.17
2019-05-05T21:17:14.431Z,8.57
2019-05-05T21:19:40.741Z,5.30
2019-05-05T21:22:08.951Z,12.17
2019-05-05T21:24:35.783Z,6.63
2019-05-05T21:27:04.227Z,10.73
2019-05-05T21:29:39.573Z,9.50
2019-05-05T21:31:59.010Z,9.63
2019-05-05T21:34:25.186Z,8.27
2019-05-05T21:36:53.857Z,10.10
2019-05-05T21:39:20.117Z,8.43
2019-05-05T21:41:46.287Z,6.17
2019-05-05T21:44:14.660Z,8.40
2019-05-05T21:46:40.672Z,8.03
2019-05-05T21:49:06.854Z,5.60
2019-05-05T21:51:35.114Z,7.83
2019-05-05T21:54:04.428Z,12.00
2019-05-05T21:56:34.160Z,9.87
2019-05-05T21:59:00.902Z,7.20
2019-05-05T22:01:28.483Z,9.93
2019-05-05T22:03:54.846Z,6.67
2019-05-05T22:06:21.055Z,6.60
2019-05-05T22:08:47.234Z,10.30
2019-05-05T22:11:14.609Z,10.73
2019-05-05T22:13:41.115Z,9.97
2019-05-05T22:16:07.294Z,7.20
2019-05-05T22:18:33.462Z,6.67
2019-05-05T22:21:01.680Z,8.90
2019-05-05T22:23:27.843Z,4.97
2019-05-05T22:25:55.054Z,11.03
2019-05-05T22:28:21.582Z,12.33
2019-05-05T22:30:47.954Z,7.67
2019-05-05T22:33:14.169Z,9.37
2019-05-05T22:35:40.351Z,4.97
2019-05-05T22:38:06.578Z,11.07
2019-05-05T22:40:34.644Z,8.63
2019-05-05T22:43:00.710Z,9.47
2019-05-05T22:45:26.886Z,10.37
2019-05-05T22:47:54.343Z,10.33
2019-05-05T22:50:20.674Z,11.03
2019-05-05T22:52:46.855Z,5.10
2019-05-05T22:55:13.893Z,8.23
2019-05-05T22:57:40.233Z,5.87
2019-05-05T23:00:23.096Z,10.30
2019-05-05T23:02:39.997Z,8.67
2019-05-05T23:05:08.198Z,9.97
2019-05-05T23:07:35.057Z,9.90
2019-05-05T23:10:01.850Z,9.47
2019-05-05T23:12:28.063Z,7.17
2019-05-05T23:14:54.635Z,9.80
2019-05-05T23:17:26.176Z,6.90
2019-05-05T23:19:53.915Z,13.90
2019-05-05T23:22:24.009Z,6.67
2019-05-05T23:24:54.086Z,11.43
2019-05-05T23:27:22.282Z,10.03
2019-05-05T23:29:48.448Z,5.67
2019-05-05T23:32:15.530Z,7.63
2019-05-05T23:34:41.832Z,12.60
2019-05-05T23:37:08.018Z,19.37
2019-05-05T23:39:34.186Z,13.17
2019-05-05T23:42:00.386Z,8.87
2019-05-05T23:44:26.566Z,9.33
2019-05-05T23:46:53.769Z,15.80
2019-05-05T23:49:21.158Z,7.80
2019-05-05T23:51:47.310Z,12.17
2019-05-05T23:54:13.686Z,8.17
2019-05-05T23:56:39.997Z,11.27
2019-05-05T23:59:06.170Z,12.93
